createdAt,value
2018-09-14T00:00:19.498Z,14.90
2018-09-14T00:02:48.888Z,15.00
2018-09-14T00:05:18.182Z,15.00
2018-09-14T00:07:47.485Z,15.00
2018-09-14T00:10:16.721Z,15.00
2018-09-14T00:12:45.944Z,15.00
2018-09-14T00:15:15.156Z,14.90
2018-09-14T00:17:44.419Z,14.90
2018-09-14T00:20:13.698Z,14.90
2018-09-14T00:22:42.969Z,14.90
2018-09-14T00:25:12.210Z,14.90
2018-09-14T00:27:41.475Z,14.90
2018-09-14T00:30:10.782Z,14.90
2018-09-14T00:32:40.036Z,14.90
2018-09-14T00:35:09.282Z,14.90
2018-09-14T00:37:38.570Z,14.80
2018-09-14T00:40:08.165Z,14.80
2018-09-14T00:42:37.558Z,14.80
2018-09-14T00:45:07.523Z,14.80
2018-09-14T00:47:36.806Z,14.80
2018-09-14T00:50:06.776Z,14.80
2018-09-14T00:52:36.013Z,14.90
2018-09-14T00:55:05.362Z,14.90
2018-09-14T00:57:34.667Z,15.00
2018-09-14T01:00:04.110Z,15.00
2018-09-14T01:02:33.436Z,15.10
2018-09-14T01:05:02.764Z,15.10
2018-09-14T01:07:32.174Z,15.10
2018-09-14T01:10:01.498Z,15.10
2018-09-14T01:12:30.750Z,15.10
2018-09-14T01:15:00.129Z,15.10
2018-09-14T01:17:29.443Z,15.10
2018-09-14T01:19:58.749Z,15.10
2018-09-14T01:22:28.042Z,15.10
2018-09-14T01:24:57.326Z,15.20
2018-09-14T01:27:26.578Z,15.20
2018-09-14T01:29:55.874Z,15.20
2018-09-14T01:32:25.166Z,15.20
2018-09-14T01:34:54.508Z,15.20
2018-09-14T01:37:23.826Z,15.30
2018-09-14T01:39:53.105Z,15.30
2018-09-14T01:42:22.444Z,15.30
2018-09-14T01:44:51.729Z,15.40
2018-09-14T01:47:21.047Z,15.40
2018-09-14T01:49:50.308Z,15.50
2018-09-14T01:54:48.679Z,15.40
2018-09-14T01:57:18.049Z,15.50
2018-09-14T01:59:47.318Z,15.50
2018-09-14T02:02:16.698Z,15.50
2018-09-14T02:04:46.057Z,15.40
2018-09-14T02:07:15.350Z,15.50
2018-09-14T02:09:44.634Z,15.50
2018-09-14T02:12:13.894Z,15.40
2018-09-14T02:14:43.232Z,15.40
2018-09-14T02:17:12.539Z,15.40
2018-09-14T02:19:41.942Z,15.40
2018-09-14T02:22:11.386Z,15.40
2018-09-14T02:24:40.686Z,15.30
2018-09-14T02:27:10.057Z,15.30
2018-09-14T02:29:39.715Z,15.30
2018-09-14T02:32:09.104Z,15.40
2018-09-14T02:34:38.373Z,15.40
2018-09-14T02:37:07.734Z,15.40
2018-09-14T02:39:37.004Z,15.40
2018-09-14T02:42:06.482Z,15.40
2018-09-14T02:44:35.734Z,15.40
2018-09-14T02:47:05.030Z,15.40
2018-09-14T02:49:34.305Z,15.40
2018-09-14T02:52:03.729Z,15.40
2018-09-14T02:54:32.991Z,15.40
2018-09-14T02:57:02.239Z,15.40
2018-09-14T02:59:31.479Z,15.50
2018-09-14T03:02:00.802Z,15.50
2018-09-14T03:04:30.070Z,15.50
2018-09-14T03:06:59.359Z,15.50
2018-09-14T03:09:28.788Z,15.50
2018-09-14T03:11:58.078Z,15.50
2018-09-14T03:14:27.559Z,15.60
2018-09-14T03:16:56.811Z,15.60
2018-09-14T03:19:26.115Z,15.60
2018-09-14T03:21:55.465Z,15.60
2018-09-14T03:24:24.789Z,15.60
2018-09-14T03:26:54.090Z,15.60
2018-09-14T03:29:23.463Z,15.60
2018-09-14T03:31:52.728Z,15.60
2018-09-14T03:34:22.075Z,15.70
2018-09-14T03:36:51.402Z,15.70
2018-09-14T03:39:20.785Z,15.70
2018-09-14T03:41:50.076Z,15.70
2018-09-14T03:44:19.397Z,15.70
2018-09-14T03:46:48.701Z,15.70
2018-09-14T03:49:24.558Z,15.70
2018-09-14T03:51:53.918Z,15.70
2018-09-14T03:54:23.225Z,15.70
2018-09-14T03:56:52.530Z,15.70
2018-09-14T03:59:21.899Z,15.80
2018-09-14T04:01:51.332Z,15.70
2018-09-14T04:04:20.685Z,15.80
2018-09-14T04:06:50.204Z,15.80
2018-09-14T04:09:19.491Z,15.70
2018-09-14T04:11:48.884Z,15.80
2018-09-14T04:14:18.405Z,15.80
2018-09-14T04:16:47.699Z,15.80
2018-09-14T04:19:17.122Z,15.80
2018-09-14T04:21:46.401Z,15.80
2018-09-14T04:24:15.708Z,15.80
2018-09-14T04:26:44.992Z,15.80
2018-09-14T04:29:14.312Z,15.80
2018-09-14T04:31:43.650Z,15.80
2018-09-14T04:34:12.989Z,15.80
2018-09-14T04:36:42.266Z,15.80
2018-09-14T04:39:11.646Z,15.80
2018-09-14T04:41:40.927Z,15.70
2018-09-14T04:44:10.252Z,15.70
2018-09-14T04:46:39.481Z,15.80
2018-09-14T04:49:08.727Z,15.80
2018-09-14T04:51:38.092Z,15.80
2018-09-14T04:54:07.365Z,15.70
2018-09-14T04:56:36.582Z,15.70
2018-09-14T04:59:05.914Z,15.70
2018-09-14T05:01:35.183Z,15.70
2018-09-14T05:04:04.442Z,15.70
2018-09-14T05:06:33.706Z,15.70
2018-09-14T05:09:02.913Z,15.70
2018-09-14T05:11:32.133Z,15.70
2018-09-14T05:14:01.412Z,15.80
2018-09-14T05:16:30.919Z,15.80
2018-09-14T05:19:00.236Z,15.80
2018-09-14T05:21:31.849Z,15.70
2018-09-14T05:24:01.171Z,15.80
2018-09-14T05:26:30.650Z,15.70
2018-09-14T05:28:59.886Z,15.80
2018-09-14T05:31:29.150Z,15.80
2018-09-14T05:33:58.366Z,15.80
2018-09-14T05:36:27.638Z,15.80
2018-09-14T05:38:57.072Z,15.90
2018-09-14T05:41:26.370Z,15.90
2018-09-14T05:43:55.882Z,16.00
2018-09-14T05:46:25.234Z,15.90
2018-09-14T05:48:54.537Z,16.00
2018-09-14T05:51:23.825Z,16.00
2018-09-14T05:53:53.587Z,16.10
2018-09-14T05:56:23.282Z,16.20
2018-09-14T05:58:52.644Z,16.30
2018-09-14T06:01:22.559Z,16.40
2018-09-14T06:03:53.228Z,16.40
2018-09-14T06:06:22.652Z,16.50
2018-09-14T06:08:51.962Z,16.50
2018-09-14T06:11:21.261Z,16.50
2018-09-14T06:13:51.363Z,16.60
2018-09-14T06:16:20.690Z,16.60
2018-09-14T06:18:50.055Z,16.70
2018-09-14T06:21:19.379Z,16.70
2018-09-14T06:23:49.679Z,16.70
2018-09-14T06:26:18.954Z,16.70
2018-09-14T06:28:48.221Z,16.60
2018-09-14T06:31:17.579Z,16.70
2018-09-14T06:33:46.881Z,16.70
2018-09-14T06:36:16.237Z,16.90
2018-09-14T06:38:45.548Z,16.90
2018-09-14T06:41:14.878Z,16.90
2018-09-14T06:43:44.218Z,16.90
2018-09-14T06:46:13.517Z,16.90
2018-09-14T06:48:42.797Z,16.90
2018-09-14T06:51:12.054Z,17.00
2018-09-14T06:53:41.386Z,17.10
2018-09-14T06:56:10.660Z,17.20
2018-09-14T06:58:39.986Z,17.20
2018-09-14T07:01:09.400Z,17.20
2018-09-14T07:03:38.696Z,17.20
2018-09-14T07:06:08.043Z,17.10
2018-09-14T07:08:37.380Z,17.10
2018-09-14T07:11:06.615Z,17.10
2018-09-14T07:13:35.941Z,17.10
2018-09-14T07:16:05.193Z,17.20
2018-09-14T07:18:34.617Z,17.30
2018-09-14T07:21:04.033Z,17.50
2018-09-14T07:23:33.341Z,17.50
2018-09-14T07:26:02.557Z,17.60
2018-09-14T07:28:31.796Z,17.60
2018-09-14T07:31:01.042Z,17.80
2018-09-14T07:33:30.277Z,17.80
2018-09-14T07:35:59.509Z,17.90
2018-09-14T07:38:28.787Z,17.80
2018-09-14T07:40:58.087Z,17.80
2018-09-14T07:43:27.458Z,17.70
2018-09-14T07:45:56.812Z,17.60
2018-09-14T07:48:26.192Z,17.50
2018-09-14T07:50:55.412Z,17.50
2018-09-14T07:53:24.681Z,17.60
2018-09-14T07:55:54.024Z,17.60
2018-09-14T07:58:23.329Z,17.60
2018-09-14T08:00:52.614Z,17.70
2018-09-14T08:03:22.151Z,17.70
2018-09-14T08:05:51.420Z,17.70
2018-09-14T08:08:20.698Z,17.70
2018-09-14T08:10:49.953Z,17.60
2018-09-14T08:13:19.322Z,17.60
2018-09-14T08:15:48.549Z,17.60
2018-09-14T08:18:17.829Z,17.70
2018-09-14T08:20:47.186Z,17.80
2018-09-14T08:23:16.458Z,17.90
2018-09-14T08:25:45.735Z,18.00
2018-09-14T08:28:15.012Z,18.00
2018-09-14T08:30:44.350Z,18.10
2018-09-14T08:33:13.630Z,18.30
2018-09-14T08:35:42.955Z,18.30
2018-09-14T08:38:12.234Z,18.50
2018-09-14T08:40:41.529Z,18.40
2018-09-14T08:43:10.803Z,18.40
2018-09-14T08:45:40.131Z,18.40
2018-09-14T08:48:09.406Z,18.50
2018-09-14T08:50:38.731Z,18.60
2018-09-14T08:53:08.122Z,18.50
2018-09-14T08:55:37.444Z,18.40
2018-09-14T08:58:07.006Z,18.40
2018-09-14T09:00:36.192Z,18.50
2018-09-14T09:03:05.534Z,18.60
2018-09-14T09:05:34.818Z,18.70
2018-09-14T09:08:04.150Z,18.80
2018-09-14T09:10:33.887Z,19.00
2018-09-14T09:13:03.254Z,19.20
2018-09-14T09:15:32.581Z,19.20
2018-09-14T09:18:01.830Z,19.30
2018-09-14T09:20:31.129Z,19.30
2018-09-14T09:23:00.442Z,19.40
2018-09-14T09:25:29.743Z,19.60
2018-09-14T09:27:59.049Z,19.60
2018-09-14T09:30:28.349Z,19.40
2018-09-14T09:32:57.607Z,19.40
2018-09-14T09:35:26.985Z,19.40
2018-09-14T09:37:56.282Z,19.40
2018-09-14T09:40:25.543Z,19.40
2018-09-14T09:42:54.918Z,19.40
2018-09-14T09:45:24.271Z,19.40
2018-09-14T09:47:53.573Z,19.20
2018-09-14T09:50:22.914Z,19.00
2018-09-14T09:52:52.175Z,19.00
2018-09-14T09:55:21.533Z,19.00
2018-09-14T09:57:50.826Z,19.00
2018-09-14T10:00:25.402Z,19.10
2018-09-14T10:02:59.989Z,19.10
2018-09-14T10:05:34.540Z,19.10
2018-09-14T10:08:03.842Z,19.10
2018-09-14T10:10:33.191Z,19.10
2018-09-14T10:13:02.531Z,19.00
2018-09-14T10:15:31.945Z,19.00
2018-09-14T10:18:01.239Z,19.00
2018-09-14T10:20:30.591Z,18.90
2018-09-14T10:22:59.865Z,18.90
2018-09-14T10:25:29.121Z,19.00
2018-09-14T10:27:58.454Z,19.00
2018-09-14T10:30:27.729Z,19.00
2018-09-14T10:32:56.980Z,19.00
2018-09-14T10:35:26.340Z,19.00
2018-09-14T10:37:55.743Z,19.10
2018-09-14T10:40:25.028Z,19.30
2018-09-14T10:42:54.482Z,19.40
2018-09-14T10:45:23.838Z,19.60
2018-09-14T10:47:53.391Z,19.90
2018-09-14T10:50:22.675Z,20.20
2018-09-14T10:52:52.086Z,20.20
2018-09-14T10:55:21.388Z,20.20
2018-09-14T10:57:50.662Z,20.00
2018-09-14T11:00:19.941Z,20.10
2018-09-14T11:02:49.222Z,20.20
2018-09-14T11:05:18.498Z,20.40
2018-09-14T11:07:48.562Z,20.60
2018-09-14T11:10:17.847Z,20.70
2018-09-14T11:12:47.189Z,20.80
2018-09-14T11:15:16.478Z,20.90
2018-09-14T11:17:45.802Z,21.00
2018-09-14T11:20:15.058Z,20.90
2018-09-14T11:22:44.398Z,21.00
2018-09-14T11:25:13.709Z,21.00
2018-09-14T11:27:43.010Z,21.20
2018-09-14T11:30:12.314Z,21.40
2018-09-14T11:32:41.618Z,21.50
2018-09-14T11:35:10.910Z,21.60
2018-09-14T11:37:40.283Z,21.50
2018-09-14T11:40:09.595Z,21.50
2018-09-14T11:42:38.857Z,21.40
2018-09-14T11:45:08.216Z,21.50
2018-09-14T11:47:37.521Z,21.70
2018-09-14T11:50:06.860Z,21.70
2018-09-14T11:52:36.321Z,21.90
2018-09-14T11:55:06.611Z,22.00
2018-09-14T11:57:35.936Z,22.20
2018-09-14T12:00:05.274Z,22.30
2018-09-14T12:02:34.617Z,22.20
2018-09-14T12:05:03.929Z,22.30
2018-09-14T12:07:37.181Z,22.40
2018-09-14T12:10:06.951Z,22.40
2018-09-14T12:12:36.310Z,22.20
2018-09-14T12:15:05.686Z,22.10
2018-09-14T12:17:35.099Z,22.20
2018-09-14T12:20:04.374Z,22.40
2018-09-14T12:22:33.809Z,22.60
2018-09-14T12:25:03.154Z,22.60
2018-09-14T12:27:35.441Z,22.60
2018-09-14T12:30:04.833Z,22.70
2018-09-14T12:32:34.186Z,22.70
2018-09-14T12:35:03.639Z,22.50
2018-09-14T12:37:32.887Z,22.60
2018-09-14T12:40:02.226Z,22.40
2018-09-14T12:42:31.586Z,22.60
2018-09-14T12:45:00.992Z,22.80
2018-09-14T12:47:30.212Z,22.50
2018-09-14T12:49:59.475Z,22.40
2018-09-14T12:52:28.745Z,22.70
2018-09-14T12:54:58.026Z,23.00
2018-09-14T12:57:27.295Z,23.20
2018-09-14T12:59:56.682Z,23.30
2018-09-14T13:02:25.970Z,23.20
2018-09-14T13:04:55.243Z,23.40
2018-09-14T13:07:24.466Z,23.50
2018-09-14T13:09:53.766Z,23.40
2018-09-14T13:12:23.113Z,23.20
2018-09-14T13:14:52.509Z,23.00
2018-09-14T13:17:21.785Z,22.80
2018-09-14T13:19:51.145Z,22.60
2018-09-14T13:22:20.530Z,22.70
2018-09-14T13:24:49.878Z,23.00
2018-09-14T13:27:19.144Z,23.40
2018-09-14T13:29:48.418Z,23.30
2018-09-14T13:32:17.886Z,23.20
2018-09-14T13:34:47.174Z,23.30
2018-09-14T13:37:16.423Z,23.40
2018-09-14T13:39:45.802Z,23.30
2018-09-14T13:42:15.086Z,23.40
2018-09-14T13:44:44.513Z,23.20
2018-09-14T13:47:13.887Z,23.10
2018-09-14T13:49:43.228Z,22.90
2018-09-14T13:52:12.567Z,22.90
2018-09-14T13:54:41.918Z,22.90
2018-09-14T13:57:11.280Z,22.90
2018-09-14T13:59:40.554Z,23.00
2018-09-14T14:02:10.291Z,23.20
2018-09-14T14:04:39.606Z,23.50
2018-09-14T14:07:08.871Z,23.80
2018-09-14T14:09:38.165Z,23.90
2018-09-14T14:12:07.407Z,24.00
2018-09-14T14:14:36.729Z,24.10
2018-09-14T14:17:06.059Z,23.80
2018-09-14T14:19:35.290Z,23.70
2018-09-14T14:22:04.575Z,23.60
2018-09-14T14:24:33.959Z,23.40
2018-09-14T14:27:03.478Z,23.30
2018-09-14T14:29:32.737Z,23.10
2018-09-14T14:32:02.045Z,23.10
2018-09-14T14:34:31.255Z,22.80
2018-09-14T14:37:00.570Z,22.60
2018-09-14T14:39:29.895Z,22.30
2018-09-14T14:41:59.211Z,22.00
2018-09-14T14:44:28.469Z,21.80
2018-09-14T14:46:57.725Z,21.70
2018-09-14T14:49:27.025Z,21.70
2018-09-14T14:51:56.254Z,21.80
2018-09-14T14:54:25.553Z,21.80
2018-09-14T14:56:54.836Z,21.80
2018-09-14T14:59:24.224Z,21.70
2018-09-14T15:01:53.476Z,21.50
2018-09-14T15:04:22.769Z,21.40
2018-09-14T15:06:52.121Z,21.40
2018-09-14T15:09:21.378Z,21.50
2018-09-14T15:11:50.632Z,21.50
2018-09-14T15:14:19.934Z,21.50
2018-09-14T15:16:49.221Z,21.40
2018-09-14T15:19:18.585Z,21.40
2018-09-14T15:21:47.864Z,21.50
2018-09-14T15:24:17.174Z,21.60
2018-09-14T15:26:46.472Z,21.50
2018-09-14T15:29:16.387Z,21.50
2018-09-14T15:31:45.758Z,21.30
2018-09-14T15:34:15.077Z,21.20
2018-09-14T15:36:44.336Z,21.20
2018-09-14T15:39:14.006Z,21.20
2018-09-14T15:41:43.361Z,21.20
2018-09-14T15:44:12.553Z,21.10
2018-09-14T15:46:41.855Z,21.10
2018-09-14T15:49:11.168Z,21.10
2018-09-14T15:51:40.684Z,21.00
2018-09-14T15:54:09.988Z,21.00
2018-09-14T15:56:39.257Z,21.00
2018-09-14T15:59:08.540Z,21.10
2018-09-14T16:01:37.846Z,21.20
2018-09-14T16:04:07.363Z,21.20
2018-09-14T16:06:36.635Z,21.10
2018-09-14T16:09:08.950Z,21.10
2018-09-14T16:11:38.181Z,21.20
2018-09-14T16:14:07.791Z,21.30
2018-09-14T16:16:38.362Z,21.40
2018-09-14T16:19:07.674Z,21.30
2018-09-14T16:21:36.960Z,21.10
2018-09-14T16:24:06.379Z,20.90
2018-09-14T16:26:35.647Z,20.70
2018-09-14T16:29:05.002Z,20.60
2018-09-14T16:31:34.478Z,20.40
2018-09-14T16:34:03.701Z,20.30
2018-09-14T16:36:33.071Z,20.20
2018-09-14T16:39:02.665Z,20.20
2018-09-14T16:41:39.290Z,20.20
2018-09-14T16:44:09.540Z,20.30
2018-09-14T16:46:40.747Z,20.30
2018-09-14T16:49:11.587Z,20.30
2018-09-14T16:51:42.756Z,20.30
2018-09-14T16:54:13.751Z,20.20
2018-09-14T16:56:44.689Z,20.10
2018-09-14T16:59:14.936Z,20.00
2018-09-14T17:01:45.155Z,19.90
2018-09-14T17:04:15.385Z,19.90
2018-09-14T17:06:47.689Z,19.90
2018-09-14T17:09:20.831Z,19.80
2018-09-14T17:11:52.466Z,19.70
2018-09-14T17:14:26.037Z,19.80
2018-09-14T17:16:58.024Z,19.70
2018-09-14T17:19:31.394Z,19.70
2018-09-14T17:22:04.595Z,19.60
2018-09-14T17:24:36.312Z,19.50
2018-09-14T17:27:08.440Z,19.50
2018-09-14T17:29:38.485Z,19.40
2018-09-14T17:32:11.302Z,19.40
2018-09-14T17:34:44.005Z,19.30
2018-09-14T17:37:15.885Z,19.20
2018-09-14T17:39:47.730Z,19.20
2018-09-14T17:42:18.666Z,19.10
2018-09-14T17:44:52.988Z,18.90
2018-09-14T17:47:24.617Z,18.80
2018-09-14T17:49:57.081Z,18.70
2018-09-14T17:52:28.461Z,18.60
2018-09-14T17:55:00.307Z,18.60
2018-09-14T17:57:30.398Z,18.60
2018-09-14T18:00:00.801Z,18.60
2018-09-14T18:02:30.538Z,18.60
2018-09-14T18:05:00.309Z,18.60
2018-09-14T18:07:29.879Z,18.60
2018-09-14T18:10:00.132Z,18.60
2018-09-14T18:12:31.088Z,18.60
2018-09-14T18:15:00.863Z,18.60
2018-09-14T18:17:30.329Z,18.60
2018-09-14T18:20:00.044Z,18.60
2018-09-14T18:22:29.694Z,18.60
2018-09-14T18:25:00.935Z,18.60
2018-09-14T18:27:30.871Z,18.60
2018-09-14T18:30:00.674Z,18.50
2018-09-14T18:32:30.333Z,18.50
2018-09-14T18:35:01.099Z,18.50
2018-09-14T18:37:30.676Z,18.50
2018-09-14T18:40:00.516Z,18.40
2018-09-14T18:42:31.697Z,18.40
2018-09-14T18:45:05.374Z,18.40
2018-09-14T18:47:34.901Z,18.30
2018-09-14T18:50:05.277Z,18.30
2018-09-14T18:52:38.719Z,18.30
2018-09-14T18:55:08.848Z,18.20
2018-09-14T18:57:39.303Z,18.20
2018-09-14T19:00:11.932Z,18.20
2018-09-14T19:02:43.731Z,18.10
2018-09-14T19:05:13.144Z,18.10
2018-09-14T19:07:42.397Z,18.10
2018-09-14T19:10:13.458Z,18.10
2018-09-14T19:12:42.883Z,18.10
2018-09-14T19:15:24.167Z,18.00
2018-09-14T19:17:54.106Z,18.10
2018-09-14T19:20:23.386Z,18.10
2018-09-14T19:22:57.370Z,18.00
2018-09-14T19:25:27.465Z,18.00
2018-09-14T19:28:00.862Z,18.00
2018-09-14T19:30:30.502Z,17.90
2018-09-14T19:32:59.980Z,17.90
2018-09-14T19:35:33.815Z,17.80
2018-09-14T19:38:05.316Z,17.80
2018-09-14T19:40:34.748Z,17.80
2018-09-14T19:43:04.062Z,17.80
2018-09-14T19:45:33.349Z,17.70
2018-09-14T19:48:02.648Z,17.70
2018-09-14T19:50:31.954Z,17.70
2018-09-14T19:53:01.285Z,17.70
2018-09-14T19:55:30.555Z,17.60
2018-09-14T19:57:59.892Z,17.60
2018-09-14T20:00:29.404Z,17.50
2018-09-14T20:02:58.738Z,17.50
2018-09-14T20:05:28.055Z,17.50
2018-09-14T20:07:57.405Z,17.50
2018-09-14T20:10:26.909Z,17.40
2018-09-14T20:12:56.294Z,17.40
2018-09-14T20:15:25.574Z,17.40
2018-09-14T20:17:54.958Z,17.40
2018-09-14T20:20:24.280Z,17.40
2018-09-14T20:22:53.679Z,17.40
2018-09-14T20:25:23.455Z,17.40
2018-09-14T20:27:52.799Z,17.30
2018-09-14T20:30:22.097Z,17.30
2018-09-14T20:32:51.354Z,17.30
2018-09-14T20:35:20.598Z,17.30
2018-09-14T20:37:49.907Z,17.20
2018-09-14T20:40:19.218Z,17.20
2018-09-14T20:42:48.499Z,17.20
2018-09-14T20:45:17.775Z,17.20
2018-09-14T20:47:47.076Z,17.20
2018-09-14T20:50:16.330Z,17.10
2018-09-14T20:52:45.619Z,17.10
2018-09-14T20:55:14.889Z,17.10
2018-09-14T20:57:44.297Z,17.10
2018-09-14T21:00:17.214Z,17.10
2018-09-14T21:02:47.226Z,17.10
2018-09-14T21:05:16.586Z,17.00
2018-09-14T21:07:45.910Z,17.10
2018-09-14T21:10:15.233Z,17.10
2018-09-14T21:12:44.566Z,17.00
2018-09-14T21:15:13.861Z,17.10
2018-09-14T21:17:43.244Z,17.10
2018-09-14T21:20:12.517Z,17.10
2018-09-14T21:22:42.277Z,17.00
2018-09-14T21:25:11.520Z,17.00
2018-09-14T21:27:40.823Z,17.00
2018-09-14T21:30:10.126Z,17.00
2018-09-14T21:32:39.475Z,16.90
2018-09-14T21:35:08.746Z,16.90
2018-09-14T21:37:38.031Z,16.90
2018-09-14T21:40:07.366Z,16.90
2018-09-14T21:42:36.631Z,16.90
2018-09-14T21:45:06.070Z,16.90
2018-09-14T21:47:35.415Z,16.90
2018-09-14T21:50:04.734Z,16.90
2018-09-14T21:52:33.958Z,16.90
2018-09-14T21:55:03.276Z,17.00
2018-09-14T21:57:32.550Z,16.90
2018-09-14T22:00:05.874Z,17.00
2018-09-14T22:02:35.315Z,17.00
2018-09-14T22:05:04.778Z,17.00
2018-09-14T22:07:39.026Z,17.00
2018-09-14T22:10:08.809Z,17.00
2018-09-14T22:12:38.034Z,17.10
2018-09-14T22:15:07.371Z,17.10
2018-09-14T22:17:36.628Z,17.10
2018-09-14T22:20:06.243Z,17.00
2018-09-14T22:22:35.519Z,17.00
2018-09-14T22:25:04.830Z,16.90
2018-09-14T22:27:34.094Z,16.90
2018-09-14T22:30:03.379Z,16.80
2018-09-14T22:32:32.602Z,16.80
2018-09-14T22:35:01.887Z,16.70
2018-09-14T22:37:31.346Z,16.60
2018-09-14T22:40:00.627Z,16.60
2018-09-14T22:42:29.847Z,16.60
2018-09-14T22:44:59.092Z,16.60
2018-09-14T22:47:28.319Z,16.60
2018-09-14T22:49:57.606Z,16.70
2018-09-14T22:52:26.839Z,16.70
2018-09-14T22:54:56.124Z,16.70
2018-09-14T22:57:25.328Z,16.70
2018-09-14T22:59:54.693Z,16.70
2018-09-14T23:02:23.961Z,16.70
2018-09-14T23:04:53.288Z,16.70
2018-09-14T23:07:22.524Z,16.70
2018-09-14T23:09:51.787Z,16.70
2018-09-14T23:12:21.057Z,16.60
2018-09-14T23:14:50.323Z,16.60
2018-09-14T23:17:19.577Z,16.60
2018-09-14T23:19:48.781Z,16.60
2018-09-14T23:22:18.002Z,16.60
2018-09-14T23:24:47.254Z,16.50
2018-09-14T23:27:16.521Z,16.50
2018-09-14T23:29:45.746Z,16.60
2018-09-14T23:32:15.085Z,16.60
2018-09-14T23:34:44.277Z,16.60
2018-09-14T23:37:13.918Z,16.60
2018-09-14T23:39:43.162Z,16.60
2018-09-14T23:42:12.416Z,16.70
2018-09-14T23:44:41.729Z,16.70
2018-09-14T23:47:11.030Z,16.70
2018-09-14T23:49:40.317Z,16.70
2018-09-14T23:52:09.562Z,16.70
2018-09-14T23:54:38.786Z,16.70
2018-09-14T23:57:08.031Z,16.70
2018-09-14T23:59:37.263Z,16.70
